Time;durP1;ratioP1;P1;durP2;ratioP2;P2;SDS_P1;SDS_P2;PMS_P1;PMS_P2;Temp;Humidity;BMP_temperature;BMP_pressure;BME280_temperature;BME280_humidity;BME280_pressure;Samples;Min_cycle;Max_cycle;Signal;HPM_P1;HPM_P2
2022/12/04 05:31:17;;;;;;;17.25;10.32;;;5.60;74.50;;;;;;5483933;23;20531;-76
2022/12/04 05:33:43;;;;;;;18.75;9.02;;;5.60;74.60;;;;;;4939105;28;20033;-76
2022/12/04 05:36:09;;;;;;;30.55;13.23;;;5.60;74.60;;;;;;4954441;29;20167;-75
2022/12/04 05:38:35;;;;;;;27.40;11.50;;;5.60;74.60;;;;;;4958140;28;20019;-76
2022/12/04 05:41:03;;;;;;;18.42;9.93;;;5.50;74.80;;;;;;4954388;28;20027;-76
2022/12/04 05:43:29;;;;;;;24.75;10.00;;;5.60;74.80;;;;;;4939650;29;20027;-77
2022/12/04 05:45:59;;;;;;;17.70;8.60;;;5.60;74.80;;;;;;4939742;29;20040;-76
2022/12/04 05:48:24;;;;;;;20.37;10.63;;;5.60;74.80;;;;;;4939747;29;20030;-77
2022/12/04 05:50:50;;;;;;;17.25;10.18;;;5.60;74.70;;;;;;4939245;29;20023;-76
2022/12/04 05:53:15;;;;;;;22.52;10.63;;;5.60;74.80;;;;;;4939748;29;20078;-76
2022/12/04 05:55:41;;;;;;;19.10;9.45;;;5.60;74.70;;;;;;4939115;29;20507;-76
2022/12/04 05:58:06;;;;;;;17.75;9.43;;;5.60;74.60;;;;;;4937768;29;20058;-76
2022/12/04 06:00:32;;;;;;;22.45;11.50;;;5.60;74.60;;;;;;4946050;28;20034;-76
2022/12/04 06:02:58;;;;;;;18.40;10.38;;;5.60;74.80;;;;;;4936979;29;20058;-76
2022/12/04 06:05:23;;;;;;;19.63;9.70;;;5.60;74.70;;;;;;4947285;29;20024;-76
2022/12/04 06:07:49;;;;;;;19.58;9.25;;;5.60;74.80;;;;;;4953782;29;20031;-76
2022/12/04 06:10:15;;;;;;;20.00;10.25;;;5.50;74.90;;;;;;4958985;28;20030;-76
2022/12/04 06:12:40;;;;;;;20.13;10.82;;;5.60;75.00;;;;;;4923109;29;20066;-76
2022/12/04 06:15:06;;;;;;;20.50;10.63;;;5.50;75.00;;;;;;4922719;29;20535;-76
2022/12/04 06:17:32;;;;;;;16.63;9.93;;;5.60;75.00;;;;;;4930223;29;20047;-76
2022/12/04 06:19:58;;;;;;;22.83;10.52;;;5.50;74.90;;;;;;4935443;29;20128;-76
2022/12/04 06:22:24;;;;;;;24.10;12.30;;;5.50;75.10;;;;;;4922200;29;20770;-75
2022/12/04 06:24:50;;;;;;;33.03;16.80;;;5.60;75.00;;;;;;4958655;28;20063;-76
2022/12/04 06:27:15;;;;;;;20.35;11.68;;;5.50;75.00;;;;;;4946538;28;20028;-76
2022/12/04 06:29:41;;;;;;;18.33;10.18;;;5.50;75.10;;;;;;4939245;29;20551;-76
2022/12/04 06:32:06;;;;;;;21.25;10.57;;;5.50;75.00;;;;;;4938155;29;20432;-76
2022/12/04 06:34:32;;;;;;;26.10;12.55;;;5.50;75.20;;;;;;4954716;28;20487;-76
2022/12/04 06:36:58;;;;;;;19.98;11.07;;;5.50;75.20;;;;;;4956191;28;20031;-76
2022/12/04 06:39:23;;;;;;;19.17;10.82;;;5.50;75.10;;;;;;4941035;29;20492;-76
2022/12/04 06:41:49;;;;;;;22.33;11.85;;;5.60;75.10;;;;;;4958505;28;20051;-76
2022/12/04 06:44:15;;;;;;;20.42;9.98;;;5.60;75.10;;;;;;4954646;28;20020;-76
2022/12/04 06:46:41;;;;;;;21.73;11.90;;;5.60;75.10;;;;;;4939180;29;20092;-76
2022/12/04 06:49:08;;;;;;;27.50;13.07;;;5.60;75.10;;;;;;4939127;29;20024;-76
2022/12/04 06:51:36;;;;;;;22.10;11.00;;;5.60;75.00;;;;;;4938926;29;20028;-77
2022/12/04 06:54:02;;;;;;;23.15;9.93;;;5.60;75.10;;;;;;4939180;29;20034;-77
2022/12/04 06:56:30;;;;;;;18.77;10.23;;;5.50;75.40;;;;;;4939002;29;20035;-76
2022/12/04 06:58:58;;;;;;;17.73;10.07;;;5.60;75.30;;;;;;4921411;29;20496;-77
2022/12/04 07:01:27;;;;;;;22.48;10.82;;;5.60;75.30;;;;;;4921779;29;20833;-79
2022/12/04 07:03:53;;;;;;;19.77;10.15;;;5.60;75.20;;;;;;4932554;29;20023;-76
2022/12/04 07:06:22;;;;;;;34.80;18.05;;;5.60;75.20;;;;;;4958084;28;20114;-76
2022/12/04 07:08:50;;;;;;;23.17;12.35;;;5.70;75.10;;;;;;4958142;29;20023;-77
2022/12/04 07:11:17;;;;;;;22.58;10.95;;;5.60;75.00;;;;;;4949577;28;20027;-80
2022/12/04 07:13:43;;;;;;;16.98;9.57;;;5.70;75.10;;;;;;4957795;29;20143;-82
2022/12/04 07:16:12;;;;;;;17.48;8.65;;;5.60;75.20;;;;;;4943539;28;20035;-81
2022/12/04 07:18:38;;;;;;;19.90;9.50;;;5.50;75.20;;;;;;4921528;29;20031;-80
2022/12/04 07:21:09;;;;;;;17.90;9.38;;;5.50;75.40;;;;;;4945279;29;20050;-81
2022/12/04 07:23:35;;;;;;;14.30;8.38;;;5.60;75.50;;;;;;4951984;29;20170;-80
2022/12/04 07:26:09;;;;;;;17.80;9.27;;;5.60;75.30;;;;;;4930522;29;20063;-83
2022/12/04 07:28:36;;;;;;;19.02;9.25;;;5.50;75.00;;;;;;4957038;29;20024;-81
2022/12/04 07:31:14;;;;;;;19.52;9.27;;;5.30;75.50;;;;;;4939112;29;20138;-77
2022/12/04 07:33:40;;;;;;;15.25;8.90;;;5.40;75.70;;;;;;4948004;29;20027;-78
2022/12/04 07:36:08;;;;;;;22.95;11.48;;;5.50;75.50;;;;;;4952585;29;20027;-81
2022/12/04 07:38:34;;;;;;;21.30;11.05;;;5.60;75.70;;;;;;4942494;29;20030;-79
2022/12/04 07:41:01;;;;;;;19.92;8.65;;;5.60;75.40;;;;;;4942501;28;20032;-81
2022/12/04 07:43:28;;;;;;;26.23;11.23;;;5.50;74.90;;;;;;4955500;29;20047;-80
2022/12/04 07:45:54;;;;;;;19.55;10.45;;;5.50;75.30;;;;;;4935950;29;20110;-84
2022/12/04 07:48:19;;;;;;;20.15;10.38;;;5.60;75.40;;;;;;4938416;29;20027;-81
2022/12/04 07:50:45;;;;;;;22.23;10.85;;;5.50;75.30;;;;;;4941607;29;20031;-78
2022/12/04 07:53:11;;;;;;;20.30;10.02;;;5.60;75.30;;;;;;4940893;28;20032;-80
2022/12/04 07:55:37;;;;;;;23.75;11.20;;;5.50;75.40;;;;;;4936971;29;20508;-84
2022/12/04 07:58:05;;;;;;;22.17;11.02;;;5.50;75.30;;;;;;4938346;29;20032;-79
2022/12/04 08:00:31;;;;;;;23.23;10.98;;;5.50;75.30;;;;;;4930405;29;20074;-78
2022/12/04 08:02:56;;;;;;;28.70;11.98;;;5.60;75.30;;;;;;4943475;28;20061;-80
2022/12/04 08:05:22;;;;;;;17.45;9.52;;;5.60;75.10;;;;;;4929342;29;20043;-79
2022/12/04 08:07:48;;;;;;;28.73;11.98;;;5.60;75.20;;;;;;4942770;28;20035;-82
2022/12/04 08:10:13;;;;;;;19.67;11.27;;;5.60;75.30;;;;;;4954523;28;20510;-76
2022/12/04 08:12:39;;;;;;;19.15;11.30;;;5.70;75.10;;;;;;4956924;28;20027;-79
2022/12/04 08:15:06;;;;;;;21.23;11.23;;;5.70;75.00;;;;;;4918787;28;20038;-81
2022/12/04 08:17:31;;;;;;;20.83;11.38;;;5.70;75.00;;;;;;4838739;28;20035;-82
2022/12/04 08:20:00;;;;;;;25.25;12.77;;;5.70;75.00;;;;;;4922583;29;20043;-82
2022/12/04 08:22:25;;;;;;;23.92;12.30;;;5.70;74.90;;;;;;4939470;28;20075;-78
2022/12/04 08:24:51;;;;;;;23.83;11.88;;;5.70;75.10;;;;;;4932465;28;20035;-79
2022/12/04 08:27:17;;;;;;;22.63;11.43;;;5.70;75.10;;;;;;4927499;29;20061;-81
2022/12/04 08:29:42;;;;;;;19.92;10.65;;;5.70;74.90;;;;;;4927254;29;20035;-79
2022/12/04 08:32:08;;;;;;;26.33;11.70;;;5.70;75.00;;;;;;4892825;29;20044;-78
2022/12/04 08:34:34;;;;;;;26.55;12.55;;;5.80;74.90;;;;;;4922681;29;20571;-79
2022/12/04 08:36:59;;;;;;;22.60;10.90;;;5.70;74.80;;;;;;4891363;29;20028;-79
2022/12/04 08:39:25;;;;;;;22.30;11.38;;;5.70;74.70;;;;;;4916184;29;20510;-79
2022/12/04 08:41:51;;;;;;;21.85;10.88;;;5.70;74.80;;;;;;4918503;29;20747;-80
2022/12/04 08:44:17;;;;;;;20.42;10.35;;;5.70;74.80;;;;;;4927397;29;20104;-81
2022/12/04 08:46:42;;;;;;;23.17;11.60;;;5.80;74.70;;;;;;4924020;29;20083;-80
2022/12/04 08:49:08;;;;;;;22.02;12.20;;;5.80;74.70;;;;;;4923972;29;20019;-79
2022/12/04 08:51:36;;;;;;;22.88;12.38;;;5.80;74.70;;;;;;4925148;29;20027;-80
2022/12/04 08:54:07;;;;;;;25.75;12.52;;;5.80;74.60;;;;;;4926683;29;20027;-80
2022/12/04 08:56:34;;;;;;;21.35;12.18;;;5.80;74.70;;;;;;4920890;29;20034;-80
2022/12/04 08:59:00;;;;;;;24.10;10.60;;;5.90;74.60;;;;;;4923730;29;20038;-82
2022/12/04 09:01:27;;;;;;;31.73;12.52;;;5.90;74.70;;;;;;4931970;29;20523;-84
2022/12/04 09:03:53;;;;;;;25.83;13.23;;;5.90;74.60;;;;;;4930747;29;20516;-78
2022/12/04 09:06:20;;;;;;;30.85;17.33;;;5.90;74.60;;;;;;4926259;29;20028;-80
2022/12/04 09:08:46;;;;;;;25.08;11.45;;;5.90;74.50;;;;;;4928687;29;20055;-80
2022/12/04 09:11:18;;;;;;;22.05;12.27;;;5.80;74.30;;;;;;4929570;29;20523;-79
2022/12/04 09:13:44;;;;;;;25.40;13.10;;;5.70;74.60;;;;;;4916136;29;20050;-82
2022/12/04 09:16:19;;;;;;;25.95;11.45;;;5.70;74.70;;;;;;4906544;29;20027;-78
2022/12/04 09:18:45;;;;;;;22.08;11.13;;;5.80;74.70;;;;;;4920714;29;20028;-79
2022/12/04 09:21:14;;;;;;;27.27;11.25;;;5.70;74.80;;;;;;4933469;29;20032;-79
2022/12/04 09:23:40;;;;;;;29.67;13.10;;;5.70;74.80;;;;;;4923637;29;20094;-80
2022/12/04 09:26:20;;;;;;;25.30;11.25;;;5.80;74.60;;;;;;4923013;28;20087;-79
2022/12/04 09:28:46;;;;;;;21.27;9.68;;;5.70;74.70;;;;;;4927597;29;20070;-79
2022/12/04 09:31:12;;;;;;;33.40;12.75;;;5.70;74.70;;;;;;4946275;28;20039;-80
2022/12/04 09:33:38;;;;;;;24.77;14.63;;;5.80;74.80;;;;;;4940983;29;20031;-83
2022/12/04 09:36:04;;;;;;;30.55;15.38;;;5.80;74.80;;;;;;4939396;28;20091;-78
2022/12/04 09:38:30;;;;;;;24.73;12.90;;;5.80;74.80;;;;;;4940343;29;20628;-78
2022/12/04 09:41:07;;;;;;;24.80;13.85;;;5.90;74.70;;;;;;4953575;28;20028;-78
2022/12/04 09:43:51;;;;;;;27.98;12.30;;;5.90;74.50;;;;;;4957027;28;20028;-81
2022/12/04 09:46:34;;;;;;;25.83;10.77;;;5.90;74.40;;;;;;4942928;28;20034;-78
2022/12/04 09:49:08;;;;;;;22.45;10.85;;;6.00;74.40;;;;;;4958158;28;20023;-80
2022/12/04 09:51:37;;;;;;;22.60;11.45;;;6.00;74.20;;;;;;4957610;28;20027;-84
2022/12/04 09:54:12;;;;;;;25.13;12.77;;;6.10;74.30;;;;;;4937414;28;20042;-81
2022/12/04 09:56:38;;;;;;;24.63;11.77;;;6.20;74.10;;;;;;4934732;28;20046;-80
2022/12/04 09:59:15;;;;;;;26.10;10.82;;;6.20;74.20;;;;;;4939538;28;20090;-77
2022/12/04 10:01:49;;;;;;;16.63;8.88;;;6.20;73.80;;;;;;4939751;28;20039;-77
2022/12/04 10:04:16;;;;;;;19.23;11.30;;;6.20;73.90;;;;;;4950697;28;20487;-76
2022/12/04 10:07:07;;;;;;;26.98;12.90;;;6.20;73.80;;;;;;4957180;28;20027;-77
2022/12/04 10:09:43;;;;;;;20.30;11.45;;;6.20;73.70;;;;;;4920792;28;20553;-77
2022/12/04 10:12:38;;;;;;;23.48;11.73;;;6.20;73.60;;;;;;4936647;28;20054;-77
2022/12/04 10:15:31;;;;;;;21.98;11.60;;;6.20;73.70;;;;;;4940995;29;20451;-77
2022/12/04 10:18:21;;;;;;;26.17;12.07;;;6.20;73.70;;;;;;4944492;28;20035;-76
2022/12/04 10:21:11;;;;;;;24.52;11.85;;;6.10;73.60;;;;;;4955963;28;20090;-78
2022/12/04 10:23:46;;;;;;;;;;;6.10;73.90;;;;;;4955233;28;20038;-77
2022/12/04 10:26:17;;;;;;;22.48;10.88;;;6.10;73.90;;;;;;4948825;28;19949;-77
2022/12/04 10:28:56;;;;;;;21.60;10.35;;;6.20;73.80;;;;;;4957770;28;20109;-76
2022/12/04 10:31:23;;;;;;;19.90;9.18;;;6.20;73.70;;;;;;4956198;28;20055;-76
2022/12/04 10:33:51;;;;;;;18.58;9.73;;;6.20;73.60;;;;;;4931340;28;20039;-77
2022/12/04 10:36:25;;;;;;;19.55;11.85;;;6.30;73.60;;;;;;4951439;28;20027;-77
2022/12/04 10:39:17;;;;;;;19.92;10.15;;;6.40;73.50;;;;;;4933685;29;20102;-77
2022/12/04 10:42:05;;;;;;;15.85;8.60;;;6.50;73.30;;;;;;4944896;28;20036;-76
2022/12/04 10:44:31;;;;;;;18.33;11.27;;;6.60;73.10;;;;;;4935263;28;20588;-76
2022/12/04 10:47:01;;;;;;;26.17;11.40;;;6.50;73.00;;;;;;4940338;28;20031;-77
2022/12/04 10:49:33;;;;;;;24.83;10.90;;;6.60;73.50;;;;;;4938663;28;20028;-76
2022/12/04 10:51:59;;;;;;;20.80;10.57;;;6.60;73.30;;;;;;4942980;28;20115;-76
2022/12/04 10:54:35;;;;;;;23.80;10.85;;;6.60;73.10;;;;;;4944741;28;20415;-76
2022/12/04 10:57:06;;;;;;;23.88;10.02;;;6.60;72.80;;;;;;4943491;28;20054;-76
2022/12/04 10:59:32;;;;;;;20.48;11.23;;;6.60;72.70;;;;;;4942872;28;20047;-76
2022/12/04 11:02:26;;;;;;;16.58;10.13;;;6.60;72.70;;;;;;4942008;28;20038;-76
2022/12/04 11:05:04;;;;;;;24.77;12.00;;;6.60;73.10;;;;;;4923988;28;20054;-76
2022/12/04 11:07:35;;;;;;;20.77;11.15;;;6.70;73.40;;;;;;4955926;28;20031;-76
2022/12/04 11:10:19;;;;;;;20.05;9.45;;;6.60;73.60;;;;;;4948949;28;20031;-76
2022/12/04 11:13:05;;;;;;;23.52;12.55;;;6.60;73.90;;;;;;4950761;28;20027;-76
2022/12/04 11:15:34;;;;;;;26.98;12.18;;;6.60;73.90;;;;;;4893774;28;20036;-80
2022/12/04 11:18:08;;;;;;;25.33;13.55;;;6.50;74.00;;;;;;4950125;28;20035;-80
2022/12/04 11:20:34;;;;;;;30.25;14.82;;;6.50;74.40;;;;;;4933905;29;20063;-87
2022/12/04 11:23:00;;;;;;;30.35;14.25;;;6.50;74.40;;;;;;4930103;28;20027;-82
2022/12/04 11:25:32;;;;;;;20.25;11.50;;;6.40;74.80;;;;;;4928282;29;20543;-86
2022/12/04 11:28:00;;;;;;;27.70;12.05;;;6.50;75.00;;;;;;4928713;29;20028;-85
2022/12/04 11:30:32;;;;;;;30.52;14.77;;;6.60;75.20;;;;;;4925804;29;20035;-85
2022/12/04 11:32:58;;;;;;;20.50;11.27;;;6.70;74.40;;;;;;4938416;28;20032;-88
2022/12/04 11:35:27;;;;;;;33.05;15.40;;;6.70;74.60;;;;;;4942176;28;20058;-82
2022/12/04 11:38:00;;;;;;;23.90;10.32;;;6.70;74.40;;;;;;4943256;28;20512;-85
2022/12/04 11:40:27;;;;;;;19.50;10.05;;;6.80;74.30;;;;;;4952465;28;20031;-88
2022/12/04 11:43:14;;;;;;;24.17;11.75;;;6.80;74.20;;;;;;4923765;28;20047;-84
2022/12/04 11:45:40;;;;;;;25.00;14.32;;;7.00;74.30;;;;;;4922065;29;20047;-80
2022/12/04 11:48:15;;;;;;;28.90;13.90;;;7.10;73.70;;;;;;4955750;29;20027;-90
2022/12/04 11:51:05;;;;;;;20.15;9.63;;;7.30;73.30;;;;;;4924271;29;20502;-83
2022/12/04 11:53:51;;;;;;;21.65;10.70;;;7.30;73.20;;;;;;4937157;29;20039;-82
2022/12/04 11:56:35;;;;;;;20.80;9.57;;;7.20;72.60;;;;;;4920652;29;20039;-82
2022/12/04 11:59:34;;;;;;;19.45;9.45;;;7.20;72.60;;;;;;4938015;29;20035;-84
2022/12/04 12:02:18;;;;;;;19.80;10.80;;;7.20;72.40;;;;;;4932975;28;20074;-87
2022/12/04 12:04:50;;;;;;;18.13;10.18;;;7.20;72.80;;;;;;4919639;29;20126;-79
2022/12/04 12:07:43;;;;;;;20.17;11.05;;;7.20;72.30;;;;;;4937810;29;20031;-79
2022/12/04 12:10:14;;;;;;;21.92;10.57;;;7.20;72.60;;;;;;4937909;29;20032;-78
2022/12/04 12:12:45;;;;;;;22.33;11.15;;;7.10;72.60;;;;;;4930123;28;20051;-77
2022/12/04 12:15:40;;;;;;;27.70;14.13;;;7.10;72.60;;;;;;4948588;28;20027;-84
2022/12/04 12:18:44;;;;;;;21.77;10.80;;;7.10;72.70;;;;;;4937667;29;20110;-83
2022/12/04 12:21:33;;;;;;;17.02;8.70;;;6.90;71.90;;;;;;4936667;28;20028;-80
2022/12/04 12:24:23;;;;;;;21.40;9.13;;;6.90;72.60;;;;;;4926980;28;20427;-82
2022/12/04 12:27:11;;;;;;;18.95;9.32;;;6.90;72.70;;;;;;4953594;28;20578;-79
2022/12/04 12:30:03;;;;;;;18.42;9.73;;;6.80;72.40;;;;;;4936687;29;20031;-86
2022/12/04 12:32:52;;;;;;;17.90;8.25;;;6.80;72.80;;;;;;4953248;28;20066;-85
2022/12/04 12:35:26;;;;;;;14.32;7.72;;;6.80;72.80;;;;;;4955658;28;20023;-87
2022/12/04 12:38:10;;;;;;;13.02;7.78;;;6.90;72.70;;;;;;4945167;28;20040;-76
2022/12/04 12:40:42;;;;;;;14.85;7.47;;;7.00;72.70;;;;;;4953654;28;20062;-79
2022/12/04 12:43:23;;;;;;;17.48;8.88;;;6.90;72.40;;;;;;4940449;29;20032;-80
2022/12/04 12:46:04;;;;;;;15.00;8.07;;;7.00;72.30;;;;;;4953638;28;20028;-83
2022/12/04 12:48:52;;;;;;;14.73;8.55;;;6.80;72.40;;;;;;4949594;28;20031;-84
2022/12/04 12:51:36;;;;;;;14.43;8.02;;;6.90;72.60;;;;;;4935092;29;20027;-82
2022/12/04 12:54:25;;;;;;;11.23;8.43;;;6.90;72.80;;;;;;4952999;29;20031;-82
2022/12/04 12:56:58;;;;;;;13.23;7.73;;;6.80;73.00;;;;;;4953534;28;20036;-81
2022/12/04 12:59:26;;;;;;;14.68;7.85;;;6.90;73.10;;;;;;4950437;28;20066;-81
2022/12/04 13:02:01;;;;;;;16.15;8.57;;;6.90;72.90;;;;;;4950463;28;20035;-81
2022/12/04 13:04:51;;;;;;;16.05;9.13;;;6.90;72.60;;;;;;4955871;29;20035;-81
2022/12/04 13:07:17;;;;;;;;;;;6.80;72.80;;;;;;4939296;29;20030;-83
2022/12/04 13:10:10;;;;;;;14.60;8.43;;;6.80;73.20;;;;;;4941007;29;19914;-82
2022/12/04 13:13:01;;;;;;;15.77;7.57;;;6.90;72.70;;;;;;4947052;28;20526;-83
2022/12/04 13:15:43;;;;;;;15.75;8.10;;;6.90;73.00;;;;;;4935001;29;20027;-83
2022/12/04 13:18:19;;;;;;;11.90;6.88;;;6.90;72.70;;;;;;4938650;29;20055;-83
2022/12/04 13:20:52;;;;;;;17.70;8.80;;;6.80;72.60;;;;;;4956548;29;20654;-83
2022/12/04 13:23:49;;;;;;;14.48;8.68;;;6.90;72.90;;;;;;4933317;29;20043;-83
2022/12/04 13:26:36;;;;;;;12.05;7.78;;;6.80;72.70;;;;;;4956968;29;20027;-83
2022/12/04 13:29:26;;;;;;;17.08;8.60;;;6.80;72.70;;;;;;4949363;28;20030;-85
2022/12/04 13:32:01;;;;;;;;;;;6.80;72.80;;;;;;4938976;29;20062;-85
2022/12/04 13:34:42;;;;;;;13.25;6.97;;;6.80;73.00;;;;;;4944387;28;19910;-84
2022/12/04 13:37:40;;;;;;;18.08;9.05;;;6.80;73.30;;;;;;4941876;28;20030;-83
2022/12/04 13:40:27;;;;;;;19.15;8.07;;;6.80;73.30;;;;;;4894392;29;20071;-83
2022/12/04 13:43:16;;;;;;;16.65;8.40;;;6.80;73.50;;;;;;4953603;28;20083;-81
2022/12/04 13:45:45;;;;;;;18.88;8.85;;;6.80;73.60;;;;;;4908353;28;21532;-86
2022/12/04 13:48:10;;;;;;;19.42;10.30;;;6.90;73.60;;;;;;4922584;28;20507;-85
2022/12/04 13:50:38;;;;;;;16.52;10.10;;;6.90;73.50;;;;;;4929863;28;20415;-84
2022/12/04 13:53:05;;;;;;;13.10;7.05;;;6.80;73.40;;;;;;4951198;28;20118;-84
2022/12/04 13:55:34;;;;;;;13.50;8.80;;;6.80;73.60;;;;;;4919753;29;20567;-85
2022/12/04 13:58:10;;;;;;;18.25;8.52;;;6.70;73.70;;;;;;4946557;29;20028;-85
2022/12/04 14:00:41;;;;;;;13.95;8.15;;;6.70;73.60;;;;;;4941572;29;20039;-84
2022/12/04 14:03:19;;;;;;;;;;;6.80;73.90;;;;;;4928359;29;20047;-85
2022/12/04 14:05:45;;;;;;;11.73;6.95;;;6.80;73.60;;;;;;4918000;29;19954;-85
2022/12/04 14:08:22;;;;;;;23.67;13.38;;;6.80;73.70;;;;;;4938313;29;20055;-85
2022/12/04 14:11:02;;;;;;;19.83;11.07;;;6.90;73.60;;;;;;4929550;29;20051;-84
2022/12/04 14:13:48;;;;;;;15.07;10.60;;;6.90;73.50;;;;;;4943256;29;20042;-85
2022/12/04 14:16:41;;;;;;;21.05;13.02;;;6.90;73.60;;;;;;4922238;29;20036;-84
2022/12/04 14:19:07;;;;;;;25.55;11.75;;;6.80;73.60;;;;;;4939585;29;20412;-84
2022/12/04 14:21:44;;;;;;;16.88;9.65;;;6.80;73.40;;;;;;4924221;29;20461;-82
2022/12/04 14:24:33;;;;;;;21.73;11.95;;;6.80;73.40;;;;;;4931631;29;20039;-82
2022/12/04 14:27:01;;;;;;;21.83;10.13;;;6.80;73.60;;;;;;4938317;29;20023;-82
2022/12/04 14:29:45;;;;;;;17.98;7.60;;;6.80;73.50;;;;;;4951447;28;20451;-82
2022/12/04 14:32:22;;;;;;;14.60;8.55;;;6.70;73.60;;;;;;4932106;29;20527;-82
2022/12/04 14:34:48;;;;;;;21.88;11.15;;;6.70;73.70;;;;;;4933075;29;20495;-81
2022/12/04 14:37:34;;;;;;;23.55;11.57;;;6.70;73.80;;;;;;4953562;28;20023;-81
2022/12/04 14:40:03;;;;;;;27.55;10.13;;;6.70;73.70;;;;;;4940007;29;20035;-82
2022/12/04 14:42:36;;;;;;;20.80;9.63;;;6.70;73.70;;;;;;4938397;29;20456;-82
2022/12/04 14:45:14;;;;;;;14.48;8.55;;;6.70;73.70;;;;;;4952778;29;20038;-82
2022/12/04 14:48:01;;;;;;;15.13;8.15;;;6.60;74.10;;;;;;4933356;29;20168;-80
2022/12/04 14:50:44;;;;;;;26.70;14.88;;;6.70;74.20;;;;;;4939623;29;20027;-81
2022/12/04 14:53:19;;;;;;;21.67;12.07;;;6.70;73.90;;;;;;4921647;29;20035;-81
2022/12/04 14:56:09;;;;;;;22.52;10.73;;;6.70;73.80;;;;;;4951646;29;20418;-80
2022/12/04 14:58:37;;;;;;;17.52;9.05;;;6.70;73.70;;;;;;4940968;28;20097;-81
2022/12/04 15:01:25;;;;;;;18.33;8.75;;;6.70;73.80;;;;;;4943815;29;20607;-82
2022/12/04 15:03:54;;;;;;;17.38;10.32;;;6.70;73.90;;;;;;4940305;28;20779;-81
2022/12/04 15:06:25;;;;;;;20.73;8.80;;;6.70;73.80;;;;;;4933727;29;20042;-84
2022/12/04 15:12:32;;;;;;;18.95;9.85;;;6.70;73.90;;;;;;4934362;29;20062;-92
2022/12/04 15:14:44;;;;;;;18.10;9.50;;;6.70;73.90;;;;;;4952072;28;20533;-91
2022/12/04 15:17:11;;;;;;;18.65;10.27;;;6.70;73.90;;;;;;4935278;29;20047;-88
2022/12/04 15:19:37;;;;;;;19.73;11.52;;;6.70;73.80;;;;;;4910050;29;20031;-88
2022/12/04 15:22:06;;;;;;;22.70;10.10;;;6.70;74.10;;;;;;4939490;28;20143;-87
2022/12/04 15:24:32;;;;;;;16.88;9.48;;;6.70;74.20;;;;;;4935767;29;20445;-88
2022/12/04 15:26:58;;;;;;;24.20;10.48;;;6.70;74.30;;;;;;4940234;29;20063;-88
2022/12/04 15:29:33;;;;;;;21.35;9.80;;;6.60;74.30;;;;;;4950083;28;20039;-81
2022/12/04 15:32:03;;;;;;;20.92;10.38;;;6.60;74.30;;;;;;4952730;28;20537;-80
2022/12/04 15:34:45;;;;;;;21.10;10.80;;;6.60;74.40;;;;;;4932030;29;20035;-80
2022/12/04 15:37:24;;;;;;;22.58;10.00;;;6.70;74.30;;;;;;4930227;29;20043;-80
2022/12/04 15:39:51;;;;;;;20.95;10.15;;;6.70;74.50;;;;;;4950695;29;20063;-80
2022/12/04 15:42:23;;;;;;;19.95;8.77;;;6.70;74.50;;;;;;4947794;29;20035;-80
2022/12/04 15:44:51;;;;;;;19.60;10.35;;;6.70;74.40;;;;;;4947599;29;20059;-81
2022/12/04 15:47:23;;;;;;;20.48;9.75;;;6.70;74.40;;;;;;4932940;29;20574;-81
2022/12/04 15:49:49;;;;;;;19.08;10.43;;;6.70;74.60;;;;;;4922848;29;20036;-80
2022/12/04 15:52:20;;;;;;;24.92;14.38;;;6.70;74.60;;;;;;4932314;28;20237;-81
2022/12/04 15:54:59;;;;;;;20.48;10.82;;;6.70;74.60;;;;;;4932333;28;20071;-82
2022/12/04 15:57:40;;;;;;;22.23;12.25;;;6.60;74.70;;;;;;4946856;28;20023;-83
2022/12/04 16:01:14;;;;;;;14.63;9.57;;;6.70;74.50;;;;;;4923347;29;20045;-84
2022/12/04 16:03:42;;;;;;;18.25;10.82;;;6.60;74.40;;;;;;4855580;28;20053;-82
2022/12/04 16:06:19;;;;;;;23.20;11.55;;;6.60;74.60;;;;;;4951304;28;20035;-83
2022/12/04 16:08:57;;;;;;;23.80;12.65;;;6.60;74.70;;;;;;4938847;29;20039;-83
2022/12/04 16:11:35;;;;;;;20.75;11.70;;;6.60;74.70;;;;;;4950122;28;20043;-81
2022/12/04 16:14:07;;;;;;;29.42;12.05;;;6.60;74.80;;;;;;4932927;29;20027;-81
2022/12/04 16:16:34;;;;;;;17.83;10.68;;;6.60;74.80;;;;;;4953183;29;20530;-83
2022/12/04 16:19:19;;;;;;;20.25;9.85;;;6.60;74.70;;;;;;4956252;28;20027;-83
2022/12/04 16:21:45;;;;;;;16.27;9.32;;;6.60;74.70;;;;;;4931299;29;20039;-82
2022/12/04 16:24:12;;;;;;;19.55;10.77;;;6.60;74.60;;;;;;4956167;28;20031;-83
2022/12/04 16:26:58;;;;;;;24.13;9.60;;;6.60;74.80;;;;;;4949741;28;20031;-82
2022/12/04 16:29:24;;;;;;;17.63;9.27;;;6.60;74.70;;;;;;4936039;29;20027;-83
2022/12/04 16:31:50;;;;;;;19.38;9.50;;;6.60;74.60;;;;;;4933703;29;20059;-82
2022/12/04 16:34:15;;;;;;;20.25;9.65;;;6.60;74.80;;;;;;4934226;28;20031;-81
2022/12/04 16:36:41;;;;;;;20.23;10.82;;;6.60;74.80;;;;;;4936773;29;20099;-81
2022/12/04 16:39:07;;;;;;;26.58;13.15;;;6.60;74.70;;;;;;4934928;28;20031;-81
2022/12/04 16:41:32;;;;;;;29.48;13.90;;;6.60;74.80;;;;;;4936536;29;20507;-82
2022/12/04 16:44:01;;;;;;;24.35;11.45;;;6.60;74.70;;;;;;4939267;29;20034;-81
2022/12/04 16:46:28;;;;;;;21.35;12.43;;;6.50;74.80;;;;;;4936612;29;20027;-82
2022/12/04 16:48:54;;;;;;;22.08;13.15;;;6.50;74.90;;;;;;4950058;28;20597;-82
2022/12/04 16:51:25;;;;;;;22.23;12.63;;;6.50;75.00;;;;;;4937704;29;20055;-82
2022/12/04 16:53:51;;;;;;;21.83;12.85;;;6.60;75.00;;;;;;4922347;29;20406;-82
2022/12/04 16:56:18;;;;;;;22.40;12.90;;;6.60;75.00;;;;;;4937725;29;20043;-80
2022/12/04 16:58:44;;;;;;;19.40;11.77;;;6.60;75.10;;;;;;4948280;28;20035;-80
2022/12/04 17:01:40;;;;;;;21.95;11.13;;;6.50;75.20;;;;;;4937954;29;20035;-80
2022/12/04 17:04:05;;;;;;;22.80;10.40;;;6.50;75.20;;;;;;4932803;29;20027;-76
2022/12/04 17:06:32;;;;;;;20.52;9.65;;;6.50;75.10;;;;;;4954904;28;20031;-76
2022/12/04 17:08:57;;;;;;;21.40;9.88;;;6.50;75.40;;;;;;4939193;28;20058;-77
2022/12/04 17:11:23;;;;;;;20.83;10.50;;;6.50;75.30;;;;;;4954633;28;20065;-76
2022/12/04 17:13:49;;;;;;;23.77;12.23;;;6.40;75.50;;;;;;4955400;29;20094;-76
2022/12/04 17:16:15;;;;;;;28.13;11.90;;;6.40;75.70;;;;;;4936344;28;20049;-76
2022/12/04 17:18:44;;;;;;;24.02;13.43;;;6.40;75.70;;;;;;4949035;28;20027;-76
2022/12/04 17:21:13;;;;;;;26.48;13.43;;;6.40;75.70;;;;;;4930574;28;20035;-82
2022/12/04 17:24:04;;;;;;;19.20;10.60;;;6.40;75.60;;;;;;4924232;28;20400;-83
2022/12/04 17:26:29;;;;;;;18.40;11.18;;;6.50;75.70;;;;;;4938323;28;20061;-88
2022/12/04 17:28:54;;;;;;;19.00;10.38;;;6.40;75.70;;;;;;4935070;28;20110;-81
2022/12/04 17:31:22;;;;;;;16.17;8.90;;;6.50;75.60;;;;;;4937594;28;20527;-81
2022/12/04 17:33:48;;;;;;;19.50;9.45;;;6.50;75.50;;;;;;4934290;28;20058;-79
2022/12/04 17:36:20;;;;;;;22.02;11.00;;;6.50;75.50;;;;;;4938514;28;20070;-82
2022/12/04 17:38:46;;;;;;;15.85;9.23;;;6.50;75.40;;;;;;4926177;29;20035;-80
2022/12/04 17:41:13;;;;;;;18.98;9.55;;;6.50;75.40;;;;;;4946409;28;20038;-80
2022/12/04 17:43:40;;;;;;;24.67;11.73;;;6.50;75.40;;;;;;4950987;28;20027;-80
2022/12/04 17:46:09;;;;;;;17.83;10.98;;;6.50;75.40;;;;;;4936536;29;20031;-79
2022/12/04 17:48:34;;;;;;;16.70;8.65;;;6.50;75.50;;;;;;4950521;28;20033;-80
2022/12/04 17:51:07;;;;;;;22.33;11.75;;;6.50;75.50;;;;;;4916390;28;20035;-80
2022/12/04 17:53:33;;;;;;;21.48;10.93;;;6.50;75.70;;;;;;4918574;29;20031;-78
2022/12/04 17:56:08;;;;;;;18.50;10.90;;;6.40;75.80;;;;;;4936616;28;20102;-80
2022/12/04 17:58:35;;;;;;;27.23;12.07;;;6.50;75.80;;;;;;4938465;28;20384;-79
2022/12/04 18:01:03;;;;;;;25.27;11.68;;;6.50;75.80;;;;;;4937371;28;20035;-79
2022/12/04 18:03:42;;;;;;;;;;;;;;;;;;;;;
2022/12/04 18:06:20;;;;;;;23.42;12.15;;;6.50;75.90;;;;;;4941669;28;20267;-83
2022/12/04 18:08:46;;;;;;;25.52;12.18;;;6.50;75.80;;;;;;4928930;29;20031;-82
2022/12/04 18:11:12;;;;;;;24.80;13.35;;;6.50;75.90;;;;;;4936046;29;20407;-80
2022/12/04 18:13:37;;;;;;;26.58;13.80;;;6.50;76.00;;;;;;4926438;29;20027;-79
2022/12/04 18:16:05;;;;;;;27.10;14.68;;;6.50;76.00;;;;;;4950084;28;20038;-80
2022/12/04 18:18:31;;;;;;;32.97;17.13;;;6.50;75.90;;;;;;4946846;28;20051;-78
2022/12/04 18:21:08;;;;;;;22.88;12.90;;;6.60;75.90;;;;;;4947370;28;20039;-79
2022/12/04 18:23:43;;;;;;;20.45;11.18;;;6.60;75.70;;;;;;4951005;28;20027;-80
2022/12/04 18:26:09;;;;;;;17.08;11.95;;;6.50;76.00;;;;;;4936217;29;20407;-79
2022/12/04 18:28:35;;;;;;;22.45;10.98;;;6.50;75.80;;;;;;4925338;28;20342;-81
2022/12/04 18:31:03;;;;;;;19.20;10.40;;;6.50;76.00;;;;;;4947972;28;20077;-82
2022/12/04 18:33:30;;;;;;;17.50;10.77;;;6.50;76.10;;;;;;4942483;28;20024;-76
2022/12/04 18:35:57;;;;;;;23.75;10.32;;;6.60;76.20;;;;;;4948832;28;20046;-77
2022/12/04 18:38:23;;;;;;;18.08;10.40;;;6.60;75.90;;;;;;4956617;28;20587;-77
2022/12/04 18:40:49;;;;;;;21.73;11.63;;;6.60;75.70;;;;;;4934017;29;20082;-79
2022/12/04 18:43:42;;;;;;;28.23;12.07;;;6.60;75.70;;;;;;4946724;28;20035;-81